createdAt,value
2019-05-22T00:00:30.242Z,91.80
2019-05-22T00:03:02.128Z,91.80
2019-05-22T00:05:34.219Z,91.60
2019-05-22T00:08:05.387Z,91.60
2019-05-22T00:10:38.293Z,91.40
2019-05-22T00:13:09.666Z,91.20
2019-05-22T00:15:40.010Z,90.90
2019-05-22T00:18:10.325Z,90.70
2019-05-22T00:20:42.145Z,90.60
2019-05-22T00:23:15.439Z,90.70
2019-05-22T00:25:47.009Z,90.80
2019-05-22T00:28:17.995Z,90.90
2019-05-22T00:30:49.228Z,90.90
2019-05-22T00:33:19.544Z,91.10
2019-05-22T00:35:51.303Z,91.20
2019-05-22T00:38:22.480Z,91.20
2019-05-22T00:40:57.736Z,91.10
2019-05-22T00:43:41.124Z,90.30
2019-05-22T00:46:12.527Z,90.40
2019-05-22T00:48:44.415Z,90.20
2019-05-22T00:51:29.476Z,90.30
2019-05-22T00:54:00.589Z,90.30
2019-05-22T00:56:31.740Z,90.60
2019-05-22T00:59:02.850Z,90.70
2019-05-22T01:01:37.990Z,90.70
2019-05-22T01:04:09.144Z,90.80
2019-05-22T01:06:39.546Z,90.80
2019-05-22T01:09:10.827Z,91.00
2019-05-22T01:11:45.078Z,90.90
2019-05-22T01:14:16.068Z,90.90
2019-05-22T01:16:48.823Z,90.70
2019-05-22T01:19:19.395Z,90.90
2019-05-22T01:21:50.894Z,90.50
2019-05-22T01:24:20.369Z,90.40
2019-05-22T01:26:51.578Z,90.50
2019-05-22T01:29:21.631Z,90.40
2019-05-22T01:31:53.304Z,90.40
2019-05-22T01:34:24.787Z,90.40
2019-05-22T01:36:59.497Z,90.40
2019-05-22T01:39:43.403Z,90.00
2019-05-22T01:42:15.749Z,90.00
2019-05-22T01:44:59.785Z,90.10
2019-05-22T01:47:24.404Z,90.30
2019-05-22T01:49:58.975Z,90.60
2019-05-22T01:52:28.541Z,90.50
2019-05-22T01:55:00.065Z,90.40
2019-05-22T01:57:30.732Z,90.40
2019-05-22T02:00:01.110Z,90.20
2019-05-22T02:02:30.813Z,89.70
2019-05-22T02:05:01.879Z,90.70
2019-05-22T02:07:32.125Z,90.00
2019-05-22T02:10:03.891Z,90.00
2019-05-22T02:12:39.090Z,89.50
2019-05-22T02:15:09.277Z,89.60
2019-05-22T02:17:39.604Z,90.00
2019-05-22T02:20:10.795Z,90.00
2019-05-22T02:22:40.862Z,90.10
2019-05-22T02:25:12.132Z,90.40
2019-05-22T02:27:42.616Z,90.00
2019-05-22T02:30:14.158Z,90.00
2019-05-22T02:32:45.679Z,90.30
2019-05-22T02:35:16.269Z,89.90
2019-05-22T02:37:46.873Z,88.40
2019-05-22T02:40:26.065Z,89.10
2019-05-22T02:42:56.471Z,89.30
2019-05-22T02:45:26.605Z,88.60
2019-05-22T02:47:57.007Z,89.10
2019-05-22T02:50:29.794Z,88.90
2019-05-22T02:53:01.629Z,88.60
2019-05-22T02:55:31.541Z,88.50
2019-05-22T02:58:03.713Z,88.50
2019-05-22T03:00:39.706Z,88.70
2019-05-22T03:03:09.938Z,89.90
2019-05-22T03:05:41.340Z,88.90
2019-05-22T03:08:10.889Z,89.20
2019-05-22T03:10:41.789Z,88.80
2019-05-22T03:13:12.320Z,88.40
2019-05-22T03:15:41.938Z,89.30
2019-05-22T03:18:13.259Z,88.00
2019-05-22T03:20:43.657Z,88.10
2019-05-22T03:23:19.407Z,88.70
2019-05-22T03:25:50.646Z,88.30
2019-05-22T03:28:20.148Z,88.70
2019-05-22T03:30:50.377Z,89.60
2019-05-22T03:33:19.985Z,89.80
2019-05-22T03:35:52.475Z,88.80
2019-05-22T03:38:23.189Z,88.40
2019-05-22T03:40:53.446Z,88.20
2019-05-22T03:43:24.933Z,88.00
2019-05-22T03:45:56.368Z,87.20
2019-05-22T03:48:29.243Z,87.30
2019-05-22T03:51:14.095Z,88.20
2019-05-22T03:53:46.389Z,87.50
2019-05-22T03:56:17.265Z,86.70
2019-05-22T03:58:47.274Z,86.30
2019-05-22T04:01:18.603Z,87.40
2019-05-22T04:03:49.657Z,86.30
2019-05-22T04:06:20.680Z,85.90
2019-05-22T04:08:52.007Z,86.70
2019-05-22T04:11:24.435Z,86.50
2019-05-22T04:13:54.513Z,86.50
2019-05-22T04:16:24.910Z,85.70
2019-05-22T04:18:57.128Z,85.50
2019-05-22T04:21:26.909Z,86.10
2019-05-22T04:23:56.434Z,85.90
2019-05-22T04:26:26.694Z,85.80
2019-05-22T04:28:57.139Z,86.80
2019-05-22T04:31:32.554Z,86.80
2019-05-22T04:34:02.409Z,86.30
2019-05-22T04:36:32.219Z,86.10
2019-05-22T04:39:05.653Z,84.80
2019-05-22T04:41:35.575Z,85.70
2019-05-22T04:44:06.110Z,85.40
2019-05-22T04:46:35.836Z,85.40
2019-05-22T04:49:05.896Z,85.90
2019-05-22T04:51:35.657Z,85.10
2019-05-22T04:54:05.356Z,84.60
2019-05-22T04:56:35.985Z,84.60
2019-05-22T04:59:05.459Z,84.60
2019-05-22T05:01:35.334Z,85.20
2019-05-22T05:04:05.770Z,84.60
2019-05-22T05:06:36.429Z,85.30
2019-05-22T05:09:10.571Z,84.60
2019-05-22T05:11:40.611Z,84.70
2019-05-22T05:14:10.159Z,85.00
2019-05-22T05:16:39.753Z,85.40
2019-05-22T05:19:09.384Z,85.10
2019-05-22T05:21:39.173Z,85.40
2019-05-22T05:24:08.768Z,85.10
2019-05-22T05:26:40.395Z,85.50
2019-05-22T05:29:11.160Z,86.70
2019-05-22T05:31:41.612Z,85.10
2019-05-22T05:34:28.697Z,85.00
2019-05-22T05:37:00.063Z,86.00
2019-05-22T05:39:42.059Z,85.40
2019-05-22T05:42:11.986Z,85.30
2019-05-22T05:44:41.805Z,86.00
2019-05-22T05:47:11.983Z,85.60
2019-05-22T05:49:42.281Z,85.30
2019-05-22T05:52:13.399Z,86.50
2019-05-22T05:54:44.694Z,85.70
2019-05-22T05:57:34.136Z,84.60
2019-05-22T06:00:05.869Z,85.70
2019-05-22T06:02:36.034Z,85.60
2019-05-22T06:05:06.932Z,85.30
2019-05-22T06:07:36.673Z,84.90
2019-05-22T06:10:25.692Z,85.60
2019-05-22T06:12:55.541Z,85.10
2019-05-22T06:15:46.556Z,84.20
2019-05-22T06:18:27.383Z,84.40
2019-05-22T06:21:03.929Z,83.50
2019-05-22T06:23:34.052Z,83.80
2019-05-22T06:26:04.913Z,84.40
2019-05-22T06:28:38.120Z,84.20
2019-05-22T06:31:10.678Z,83.20
2019-05-22T06:33:41.273Z,81.80
2019-05-22T06:36:13.530Z,81.90
2019-05-22T06:38:53.356Z,83.40
2019-05-22T06:41:25.490Z,81.10
2019-05-22T06:44:24.924Z,80.80
2019-05-22T06:46:54.563Z,78.60
2019-05-22T06:49:36.003Z,78.90
2019-05-22T06:52:07.450Z,78.00
2019-05-22T06:54:38.345Z,77.70
2019-05-22T06:57:10.566Z,76.20
2019-05-22T06:59:41.092Z,76.60
2019-05-22T07:02:12.785Z,74.90
2019-05-22T07:04:42.808Z,77.10
2019-05-22T07:07:14.059Z,75.40
2019-05-22T07:09:44.916Z,75.10
2019-05-22T07:12:16.300Z,76.20
2019-05-22T07:15:00.733Z,74.40
2019-05-22T07:17:31.131Z,74.30
2019-05-22T07:20:02.383Z,75.10
2019-05-22T07:22:32.635Z,75.50
2019-05-22T07:25:02.637Z,75.20
2019-05-22T07:27:33.563Z,77.00
2019-05-22T07:30:04.415Z,75.10
2019-05-22T07:32:34.214Z,71.70
2019-05-22T07:35:05.512Z,72.30
2019-05-22T07:37:42.757Z,71.70
2019-05-22T07:40:13.381Z,71.50
2019-05-22T07:42:42.946Z,70.70
2019-05-22T07:45:14.121Z,74.70
2019-05-22T07:47:44.076Z,72.40
2019-05-22T07:50:14.307Z,71.70
2019-05-22T07:52:44.335Z,71.60
2019-05-22T07:55:15.983Z,70.60
2019-05-22T07:57:49.068Z,70.40
2019-05-22T08:00:19.022Z,70.90
2019-05-22T08:02:49.209Z,70.00
2019-05-22T08:05:21.483Z,70.30
2019-05-22T08:07:51.553Z,71.50
2019-05-22T08:10:22.023Z,70.10
2019-05-22T08:12:52.633Z,70.40
2019-05-22T08:15:22.800Z,69.50
2019-05-22T08:17:52.831Z,69.60
2019-05-22T08:20:22.336Z,70.20
2019-05-22T08:22:55.637Z,67.50
2019-05-22T08:25:26.214Z,70.00
2019-05-22T08:27:56.029Z,69.40
2019-05-22T08:30:26.410Z,68.50
2019-05-22T08:32:58.508Z,61.80
2019-05-22T08:35:28.498Z,66.50
2019-05-22T08:37:58.334Z,66.60
2019-05-22T08:40:28.022Z,67.20
2019-05-22T08:42:57.757Z,64.50
2019-05-22T08:45:28.062Z,66.40
2019-05-22T08:47:58.047Z,63.20
2019-05-22T08:50:31.262Z,63.80
2019-05-22T08:53:02.536Z,69.60
2019-05-22T08:55:35.515Z,66.60
2019-05-22T08:58:05.850Z,67.20
2019-05-22T09:00:35.420Z,67.00
2019-05-22T09:03:05.471Z,66.60
2019-05-22T09:05:35.331Z,62.70
2019-05-22T09:08:04.992Z,60.80
2019-05-22T09:10:34.516Z,61.40
2019-05-22T09:13:04.378Z,60.60
2019-05-22T09:15:34.952Z,60.80
2019-05-22T09:18:05.720Z,60.60
2019-05-22T09:20:48.734Z,57.50
2019-05-22T09:23:09.687Z,61.50
2019-05-22T09:25:39.260Z,58.80
2019-05-22T09:28:08.996Z,61.70
2019-05-22T09:30:38.797Z,65.40
2019-05-22T09:33:10.314Z,61.20
2019-05-22T09:35:40.031Z,62.10
2019-05-22T09:38:09.703Z,57.70
2019-05-22T09:40:39.458Z,57.30
2019-05-22T09:43:09.001Z,56.50
2019-05-22T09:45:38.476Z,59.60
2019-05-22T09:48:08.104Z,57.00
2019-05-22T09:50:38.424Z,57.40
2019-05-22T09:53:08.910Z,60.30
2019-05-22T09:55:38.829Z,56.60
2019-05-22T09:58:08.302Z,55.50
2019-05-22T10:00:38.072Z,51.60
2019-05-22T10:03:07.704Z,55.90
2019-05-22T10:05:37.743Z,57.90
2019-05-22T10:08:07.562Z,54.60
2019-05-22T10:10:37.043Z,57.60
2019-05-22T10:13:08.017Z,49.30
2019-05-22T10:15:37.589Z,53.10
2019-05-22T10:18:07.758Z,48.90
2019-05-22T10:20:37.513Z,53.10
2019-05-22T10:23:15.342Z,52.60
2019-05-22T10:25:39.572Z,54.30
2019-05-22T10:28:09.947Z,52.90
2019-05-22T10:30:40.381Z,47.40
2019-05-22T10:33:10.503Z,47.50
2019-05-22T10:35:41.165Z,52.10
2019-05-22T10:38:10.978Z,48.10
2019-05-22T10:40:40.667Z,46.60
2019-05-22T10:43:10.166Z,50.70
2019-05-22T10:45:40.114Z,51.10
2019-05-22T10:48:08.860Z,47.80
2019-05-22T10:50:39.032Z,50.20
2019-05-22T10:53:09.029Z,48.30
2019-05-22T10:55:39.804Z,48.40
2019-05-22T10:58:09.580Z,45.90
2019-05-22T11:00:39.411Z,47.50
2019-05-22T11:03:09.758Z,49.50
2019-05-22T11:05:39.955Z,50.30
2019-05-22T11:08:10.229Z,51.30
2019-05-22T11:10:40.633Z,50.00
2019-05-22T11:13:11.945Z,52.60
2019-05-22T11:15:41.490Z,53.20
2019-05-22T11:18:12.852Z,52.00
2019-05-22T11:20:43.890Z,50.40
2019-05-22T11:23:13.601Z,49.60
2019-05-22T11:25:43.254Z,51.30
2019-05-22T11:28:12.816Z,50.30
2019-05-22T11:30:43.286Z,51.50
2019-05-22T11:33:13.082Z,48.80
2019-05-22T11:35:42.919Z,53.70
2019-05-22T11:38:12.743Z,52.00
2019-05-22T11:40:43.377Z,49.80
2019-05-22T11:43:21.918Z,50.40
2019-05-22T11:45:51.484Z,53.20
2019-05-22T11:48:22.136Z,52.30
2019-05-22T11:50:53.869Z,53.40
2019-05-22T11:53:23.374Z,51.50
2019-05-22T11:55:56.648Z,49.90
2019-05-22T11:58:26.472Z,52.30
2019-05-22T12:00:56.197Z,51.10
2019-05-22T12:03:27.047Z,52.90
2019-05-22T12:05:56.894Z,51.50
2019-05-22T12:08:26.737Z,51.10
2019-05-22T12:10:57.481Z,48.00
2019-05-22T12:13:27.551Z,49.40
2019-05-22T12:15:58.030Z,48.00
2019-05-22T12:18:28.387Z,46.70
2019-05-22T12:21:00.152Z,49.80
2019-05-22T12:23:30.278Z,49.20
2019-05-22T12:26:00.282Z,50.80
2019-05-22T12:28:29.048Z,50.10
2019-05-22T12:30:59.031Z,50.80
2019-05-22T12:33:30.015Z,49.10
2019-05-22T12:35:59.515Z,47.30
2019-05-22T12:38:30.783Z,45.60
2019-05-22T12:41:00.343Z,44.90
2019-05-22T12:43:31.773Z,47.50
2019-05-22T12:46:01.911Z,45.00
2019-05-22T12:48:32.144Z,44.90
2019-05-22T12:51:01.708Z,45.60
2019-05-22T12:53:32.075Z,43.30
2019-05-22T12:56:01.934Z,45.10
2019-05-22T12:58:33.083Z,43.60
2019-05-22T13:01:04.205Z,45.50
2019-05-22T13:03:35.012Z,41.50
2019-05-22T13:06:06.606Z,41.80
2019-05-22T13:08:37.221Z,42.70
2019-05-22T13:11:07.161Z,46.40
2019-05-22T13:13:37.112Z,42.00
2019-05-22T13:16:07.855Z,39.40
2019-05-22T13:18:38.444Z,40.40
2019-05-22T13:21:09.353Z,42.80
2019-05-22T13:23:41.875Z,42.70
2019-05-22T13:26:12.015Z,39.10
2019-05-22T13:28:46.056Z,39.10
2019-05-22T13:31:18.803Z,41.10
2019-05-22T13:33:52.727Z,40.50
2019-05-22T13:36:23.773Z,38.10
2019-05-22T13:38:53.891Z,38.70
2019-05-22T13:41:23.509Z,40.00
2019-05-22T13:43:55.177Z,42.40
2019-05-22T13:46:24.917Z,36.50
2019-05-22T13:48:54.487Z,40.20
2019-05-22T13:51:24.398Z,39.00
2019-05-22T13:53:53.369Z,38.20
2019-05-22T13:56:25.580Z,39.50
2019-05-22T13:58:55.909Z,38.60
2019-05-22T14:01:25.630Z,39.40
2019-05-22T14:03:55.643Z,36.20
2019-05-22T14:06:26.000Z,38.80
2019-05-22T14:08:56.298Z,37.40
2019-05-22T14:11:26.058Z,36.60
2019-05-22T14:13:55.781Z,38.60
2019-05-22T14:16:25.563Z,35.30
2019-05-22T14:18:56.660Z,38.30
2019-05-22T14:21:26.198Z,36.00
2019-05-22T14:23:55.759Z,36.70
2019-05-22T14:26:25.754Z,37.30
2019-05-22T14:28:55.452Z,36.00
2019-05-22T14:31:25.366Z,37.20
2019-05-22T14:33:56.914Z,37.60
2019-05-22T14:36:27.032Z,38.10
2019-05-22T14:38:57.238Z,37.00
2019-05-22T14:41:26.811Z,37.40
2019-05-22T14:43:56.539Z,36.80
2019-05-22T14:46:26.084Z,36.00
2019-05-22T14:48:57.223Z,37.70
2019-05-22T14:51:27.258Z,38.10
2019-05-22T14:53:58.537Z,37.70
2019-05-22T14:56:28.064Z,37.70
2019-05-22T14:58:58.005Z,39.40
2019-05-22T15:01:28.350Z,39.40
2019-05-22T15:03:58.508Z,40.30
2019-05-22T15:06:28.133Z,38.70
2019-05-22T15:08:58.043Z,39.40
2019-05-22T15:11:27.866Z,39.70
2019-05-22T15:13:57.632Z,39.40
2019-05-22T15:16:27.225Z,41.50
2019-05-22T15:18:56.876Z,39.40
2019-05-22T15:21:26.861Z,41.20
2019-05-22T15:23:56.726Z,39.60
2019-05-22T15:26:27.699Z,40.50
2019-05-22T15:28:58.758Z,42.10
2019-05-22T15:31:28.790Z,42.30
2019-05-22T15:33:59.309Z,41.50
2019-05-22T15:36:29.124Z,44.30
2019-05-22T15:38:58.608Z,42.90
2019-05-22T15:41:28.879Z,43.80
2019-05-22T15:43:58.842Z,40.60
2019-05-22T15:46:29.022Z,42.60
2019-05-22T15:48:59.388Z,42.10
2019-05-22T15:51:30.623Z,41.80
2019-05-22T15:54:02.189Z,45.10
2019-05-22T15:56:34.253Z,43.70
2019-05-22T15:59:07.013Z,45.00
2019-05-22T16:01:37.350Z,44.70
2019-05-22T16:04:10.029Z,44.20
2019-05-22T16:06:39.990Z,44.60
2019-05-22T16:09:13.266Z,45.00
2019-05-22T16:11:44.601Z,45.90
2019-05-22T16:14:14.857Z,45.10
2019-05-22T16:16:45.876Z,45.20
2019-05-22T16:19:16.182Z,45.30
2019-05-22T16:21:47.304Z,46.20
2019-05-22T16:24:17.577Z,46.80
2019-05-22T16:26:48.387Z,48.40
2019-05-22T16:29:18.522Z,45.30
2019-05-22T16:31:48.573Z,47.90
2019-05-22T16:34:18.452Z,47.10
2019-05-22T16:36:48.251Z,46.70
2019-05-22T16:39:19.459Z,47.20
2019-05-22T16:41:49.592Z,47.20
2019-05-22T16:44:19.756Z,46.00
2019-05-22T16:46:49.759Z,46.90
2019-05-22T16:49:19.330Z,45.60
2019-05-22T16:51:49.697Z,46.80
2019-05-22T16:54:20.873Z,46.70
2019-05-22T16:56:51.277Z,46.90
2019-05-22T16:59:21.594Z,45.60
2019-05-22T17:02:00.169Z,47.00
2019-05-22T17:04:22.662Z,46.60
2019-05-22T17:06:52.396Z,42.80
2019-05-22T17:09:22.935Z,43.10
2019-05-22T17:11:53.089Z,43.10
2019-05-22T17:14:23.718Z,44.20
2019-05-22T17:16:54.891Z,43.00
2019-05-22T17:19:27.368Z,44.20
2019-05-22T17:21:55.939Z,43.70
2019-05-22T17:24:27.356Z,43.50
2019-05-22T17:26:57.413Z,44.10
2019-05-22T17:29:27.459Z,45.00
2019-05-22T17:31:56.938Z,45.00
2019-05-22T17:34:36.520Z,43.20
2019-05-22T17:37:09.622Z,44.00
2019-05-22T17:39:41.692Z,44.60
2019-05-22T17:42:16.465Z,45.30
2019-05-22T17:44:49.673Z,45.50
2019-05-22T17:47:23.816Z,44.40
2019-05-22T17:49:54.558Z,45.80
2019-05-22T17:52:26.151Z,46.80
2019-05-22T17:54:55.793Z,47.00
2019-05-22T17:57:25.435Z,46.80
2019-05-22T17:59:55.926Z,47.60
2019-05-22T18:02:26.337Z,48.10
2019-05-22T18:04:56.458Z,48.80
2019-05-22T18:07:26.809Z,49.50
2019-05-22T18:09:56.516Z,50.10
2019-05-22T18:12:27.122Z,50.20
2019-05-22T18:14:56.843Z,50.40
2019-05-22T18:17:26.681Z,50.80
2019-05-22T18:19:57.890Z,51.00
2019-05-22T18:22:28.346Z,51.30
2019-05-22T18:24:58.336Z,52.10
2019-05-22T18:27:27.890Z,52.10
2019-05-22T18:29:59.019Z,52.10
2019-05-22T18:32:31.722Z,52.60
2019-05-22T18:35:01.118Z,52.80
2019-05-22T18:37:50.071Z,52.80
2019-05-22T18:40:19.819Z,53.30
2019-05-22T18:42:49.425Z,54.20
2019-05-22T18:45:21.405Z,54.10
2019-05-22T18:47:51.239Z,54.40
2019-05-22T18:50:21.278Z,55.50
2019-05-22T18:52:51.255Z,55.40
2019-05-22T18:55:21.160Z,55.40
2019-05-22T18:57:50.805Z,55.80
2019-05-22T19:00:22.748Z,56.70
2019-05-22T19:02:52.676Z,56.80
2019-05-22T19:05:25.509Z,57.10
2019-05-22T19:07:56.293Z,57.80
2019-05-22T19:10:25.852Z,58.40
2019-05-22T19:12:55.909Z,58.60
2019-05-22T19:15:25.826Z,58.40
2019-05-22T19:17:55.359Z,58.90
2019-05-22T19:20:25.222Z,59.00
2019-05-22T19:23:00.872Z,59.10
2019-05-22T19:25:26.370Z,59.00
2019-05-22T19:27:55.763Z,58.90
2019-05-22T19:30:25.989Z,59.50
2019-05-22T19:32:55.591Z,59.40
2019-05-22T19:35:25.250Z,59.40
2019-05-22T19:37:55.999Z,59.40
2019-05-22T19:40:25.512Z,59.20
2019-05-22T19:42:55.030Z,58.60
2019-05-22T19:45:24.971Z,58.50
2019-05-22T19:47:56.987Z,57.70
2019-05-22T19:50:32.059Z,57.10
2019-05-22T19:53:17.737Z,57.20
2019-05-22T19:55:33.452Z,57.00
2019-05-22T19:58:04.093Z,56.80
2019-05-22T20:00:33.796Z,57.20
2019-05-22T20:03:04.875Z,57.10
2019-05-22T20:05:36.298Z,57.70
2019-05-22T20:08:07.210Z,56.80
2019-05-22T20:10:37.579Z,56.70
2019-05-22T20:13:09.079Z,57.10
2019-05-22T20:15:39.829Z,57.60
2019-05-22T20:18:10.638Z,58.00
2019-05-22T20:20:39.420Z,58.30
2019-05-22T20:23:09.873Z,58.10
2019-05-22T20:25:39.700Z,58.80
2019-05-22T20:28:10.331Z,58.80
2019-05-22T20:30:40.147Z,58.90
2019-05-22T20:33:10.722Z,59.00
2019-05-22T20:35:40.582Z,59.20
2019-05-22T20:38:11.737Z,59.30
2019-05-22T20:40:41.747Z,59.50
2019-05-22T20:43:12.454Z,59.80
2019-05-22T20:45:42.874Z,59.70
2019-05-22T20:48:16.321Z,60.10
2019-05-22T20:50:46.180Z,60.40
2019-05-22T20:53:17.507Z,60.30
2019-05-22T20:55:48.803Z,64.90
2019-05-22T20:58:21.073Z,64.70
2019-05-22T21:00:51.701Z,64.30
2019-05-22T21:03:21.658Z,64.20
2019-05-22T21:05:52.850Z,64.80
2019-05-22T21:08:25.274Z,64.10
2019-05-22T21:10:56.422Z,64.50
2019-05-22T21:13:26.192Z,64.60
2019-05-22T21:15:56.134Z,66.10
2019-05-22T21:18:28.341Z,67.20
2019-05-22T21:20:59.486Z,67.20
2019-05-22T21:23:29.764Z,67.40
2019-05-22T21:25:59.379Z,67.80
2019-05-22T21:28:29.121Z,66.90
2019-05-22T21:30:59.338Z,66.60
2019-05-22T21:33:29.896Z,67.20
2019-05-22T21:36:00.277Z,68.10
2019-05-22T21:38:30.516Z,69.10
2019-05-22T21:41:00.304Z,69.20
2019-05-22T21:43:30.542Z,68.80
2019-05-22T21:46:01.144Z,69.00
2019-05-22T21:48:31.722Z,69.50
2019-05-22T21:51:01.767Z,69.60
2019-05-22T21:53:32.006Z,69.50
2019-05-22T21:56:05.539Z,70.30
2019-05-22T21:58:33.480Z,71.70
2019-05-22T22:01:05.482Z,72.20
2019-05-22T22:03:37.388Z,72.00
2019-05-22T22:06:08.320Z,72.30
2019-05-22T22:08:38.013Z,72.90
2019-05-22T22:11:08.947Z,73.50
2019-05-22T22:13:39.661Z,74.10
2019-05-22T22:16:10.766Z,74.60
2019-05-22T22:18:41.264Z,74.90
2019-05-22T22:21:14.016Z,75.30
2019-05-22T22:23:45.261Z,75.90
2019-05-22T22:26:25.584Z,75.70
2019-05-22T22:28:46.871Z,75.90
2019-05-22T22:31:19.151Z,76.60
2019-05-22T22:33:52.157Z,76.70
2019-05-22T22:36:21.801Z,76.90
2019-05-22T22:38:51.837Z,76.90
2019-05-22T22:41:22.653Z,77.00
2019-05-22T22:43:52.865Z,77.40
2019-05-22T22:46:27.042Z,77.40
2019-05-22T22:48:59.210Z,77.60
2019-05-22T22:51:30.278Z,78.00
2019-05-22T22:54:00.963Z,78.00
2019-05-22T22:56:30.753Z,79.60
2019-05-22T22:59:00.361Z,80.20
2019-05-22T23:01:32.018Z,80.60
2019-05-22T23:04:05.579Z,80.40
2019-05-22T23:06:36.300Z,80.90
2019-05-22T23:09:08.515Z,80.70
2019-05-22T23:11:41.851Z,81.00
2019-05-22T23:14:11.435Z,81.00
2019-05-22T23:16:41.905Z,81.80
2019-05-22T23:19:15.872Z,81.90
2019-05-22T23:21:45.393Z,82.10
2019-05-22T23:24:16.746Z,82.00
2019-05-22T23:26:47.505Z,81.80
2019-05-22T23:29:17.759Z,81.40
2019-05-22T23:31:48.628Z,80.90
2019-05-22T23:34:18.276Z,80.90
2019-05-22T23:36:48.458Z,81.50
2019-05-22T23:39:20.546Z,81.90
2019-05-22T23:41:55.723Z,82.80
2019-05-22T23:44:23.417Z,83.00
2019-05-22T23:46:53.639Z,83.50
2019-05-22T23:49:23.562Z,83.90
2019-05-22T23:51:53.390Z,82.40
2019-05-22T23:54:24.173Z,82.40
2019-05-22T23:56:54.252Z,82.80
2019-05-22T23:59:24.004Z,83.40
